Time;durP1;ratioP1;P1;durP2;ratioP2;P2;SDS_P1;SDS_P2;PMS_P1;PMS_P2;Temp;Humidity;BMP_temperature;BMP_pressure;BME280_temperature;BME280_humidity;BME280_pressure;Samples;Min_cycle;Max_cycle;Signal;HPM_P1;HPM_P2
2024/04/10 00:01:53;;;;;;;;;;;;;;;9.79;93.50;98356.00;5475066;26;20000;-49
2024/04/10 00:04:18;;;;;;;;;;;;;;;9.82;94.57;98363.63;5478852;26;19959;-49
2024/04/10 00:06:43;;;;;;;;;;;;;;;9.83;94.46;98373.13;5482545;26;19993;-48
2024/04/10 00:09:09;;;;;;;;;;;;;;;9.68;94.75;98366.06;5481561;26;20392;-49
2024/04/10 00:11:34;;;;;;;;;;;;;;;9.72;94.98;98367.59;5475744;26;19963;-49
2024/04/10 00:13:59;;;;;;;;;;;;;;;9.76;95.69;98370.91;5476020;26;20072;-49
2024/04/10 00:16:25;;;;;;;;;;;;;;;9.61;96.61;98369.84;5481139;26;20004;-49
2024/04/10 00:18:50;;;;;;;;;;;;;;;9.67;96.08;98369.56;5478137;26;19978;-48
2024/04/10 00:21:16;;;;;;;;;;;;;;;9.69;95.75;98372.09;5478397;26;19935;-49
2024/04/10 00:23:41;;;;;;;;;;;;;;;9.59;96.52;98376.88;5484203;26;19979;-48
2024/04/10 00:26:06;;;;;;;;;;;;;;;9.60;96.43;98377.69;5475395;26;19939;-48
2024/04/10 00:28:31;;;;;;;;;;;;;;;9.45;97.19;98387.06;5481363;26;19968;-49
2024/04/10 00:30:57;;;;;;;;;;;;;;;9.49;97.36;98386.00;5489815;26;20394;-49
2024/04/10 00:33:23;;;;;;;;;;;;;;;9.48;97.90;98399.91;5479276;26;20225;-49
2024/04/10 00:35:58;;;;;;;;;;;;;;;9.29;98.92;98400.81;5488157;26;19930;-50
2024/04/10 00:38:25;;;;;;;;;;;;;;;9.28;99.10;98391.34;5479874;26;19929;-49
2024/04/10 00:41:08;;;;;;;;;;;;;;;9.30;99.09;98402.50;5483887;26;19962;-49
2024/04/10 00:43:34;;;;;;;;;;;;;;;9.21;100.00;98403.75;5476836;26;20008;-48
2024/04/10 00:46:08;;;;;;;;;;;;;;;9.20;100.00;98404.66;5482666;26;19986;-49
2024/04/10 00:48:34;;;;;;;;;;;;;;;9.27;100.00;98398.28;5469980;26;19959;-48
2024/04/10 00:50:59;;;;;;;;;;;;;;;9.12;99.70;98398.97;5482562;26;20006;-49
2024/04/10 00:53:25;;;;;;;;;;;;;;;9.21;99.36;98395.94;5476426;26;20082;-48
2024/04/10 00:55:50;;;;;;;;;;;;;;;9.21;99.36;98395.94;5480909;26;19944;-48
2024/04/10 00:58:15;;;;;;;;;;;;;;;9.14;99.55;98394.53;5479775;26;19965;-50
2024/04/10 01:00:41;;;;;;;;;;;;;;;9.04;99.06;98398.47;5470933;26;20070;-50
2024/04/10 01:03:06;;;;;;;;;;;;;;;8.84;100.00;98408.00;5474382;26;19994;-49
2024/04/10 01:05:31;;;;;;;;;;;;;;;8.94;100.00;98410.13;5479412;26;19936;-48
2024/04/10 01:07:56;;;;;;;;;;;;;;;8.90;100.00;98413.75;5473051;26;20001;-49
2024/04/10 01:10:22;;;;;;;;;;;;;;;8.91;100.00;98419.81;5488641;26;19981;-49
2024/04/10 01:12:47;;;;;;;;;;;;;;;8.95;100.00;98426.56;5481860;26;19992;-49
2024/04/10 01:15:12;;;;;;;;;;;;;;;8.75;100.00;98417.03;5484175;26;20006;-48
2024/04/10 01:17:38;;;;;;;;;;;;;;;8.79;100.00;98418.59;5471623;26;19963;-49
2024/04/10 01:20:07;;;;;;;;;;;;;;;8.86;100.00;98425.19;5477867;26;19928;-49
2024/04/10 01:22:32;;;;;;;;;;;;;;;8.90;100.00;98421.53;5488083;26;19944;-49
2024/04/10 01:24:57;;;;;;;;;;;;;;;8.78;100.00;98427.28;5487859;26;20003;-49
2024/04/10 01:27:22;;;;;;;;;;;;;;;8.62;100.00;98440.97;5480039;26;19963;-49
2024/04/10 01:29:48;;;;;;;;;;;;;;;8.66;100.00;98432.13;5463707;26;19939;-49
2024/04/10 01:32:13;;;;;;;;;;;;;;;8.58;100.00;98445.44;5468265;26;19964;-49
2024/04/10 01:34:38;;;;;;;;;;;;;;;8.56;100.00;98452.41;5478255;26;19963;-48
2024/04/10 01:37:03;;;;;;;;;;;;;;;8.45;100.00;98444.25;5464070;26;19995;-49
2024/04/10 01:39:29;;;;;;;;;;;;;;;8.39;100.00;98447.09;5480724;26;19988;-49
2024/04/10 01:41:54;;;;;;;;;;;;;;;8.50;100.00;98457.84;5487326;26;19956;-50
2024/04/10 01:44:19;;;;;;;;;;;;;;;8.60;100.00;98451.41;5472277;26;19929;-49
2024/04/10 01:46:44;;;;;;;;;;;;;;;8.46;100.00;98461.50;5489061;26;19975;-49
2024/04/10 01:49:09;;;;;;;;;;;;;;;8.47;100.00;98459.72;5489259;26;19936;-49
2024/04/10 01:51:35;;;;;;;;;;;;;;;8.35;100.00;98466.25;5474573;26;20321;-50
2024/04/10 01:54:00;;;;;;;;;;;;;;;8.39;100.00;98464.38;5483932;26;20371;-48
2024/04/10 01:56:25;;;;;;;;;;;;;;;8.38;100.00;98468.75;5474393;26;19964;-50
2024/04/10 01:58:50;;;;;;;;;;;;;;;8.40;100.00;98463.47;5471462;26;19998;-50
2024/04/10 02:01:16;;;;;;;;;;;;;;;8.19;100.00;98472.97;5481676;26;19993;-49
2024/04/10 02:03:41;;;;;;;;;;;;;;;8.15;100.00;98473.94;5486837;26;20457;-48
2024/04/10 02:06:06;;;;;;;;;;;;;;;8.31;100.00;98477.66;5479956;26;20279;-50
2024/04/10 02:08:31;;;;;;;;;;;;;;;8.30;100.00;98483.72;5472049;26;20287;-48
2024/04/10 02:11:00;;;;;;;;;;;;;;;8.20;100.00;98491.94;5481956;26;19928;-49
2024/04/10 02:13:26;;;;;;;;;;;;;;;8.15;100.00;98488.66;5486838;26;20014;-48
2024/04/10 02:15:51;;;;;;;;;;;;;;;8.09;100.00;98484.53;5472665;26;19960;-49
2024/04/10 02:18:16;;;;;;;;;;;;;;;8.03;100.00;98486.53;5482520;26;19928;-48
2024/04/10 02:20:41;;;;;;;;;;;;;;;8.18;100.00;98491.13;5485922;26;19979;-49
2024/04/10 02:23:06;;;;;;;;;;;;;;;8.01;100.00;98496.97;5482980;26;19966;-49
2024/04/10 02:25:33;;;;;;;;;;;;;;;7.95;100.00;98489.41;5476279;26;19928;-48
2024/04/10 02:27:58;;;;;;;;;;;;;;;7.86;100.00;98500.13;5477180;26;19933;-49
2024/04/10 02:30:23;;;;;;;;;;;;;;;7.88;100.00;98495.72;5487007;26;20471;-49
2024/04/10 02:32:49;;;;;;;;;;;;;;;7.91;100.00;98493.03;5480102;26;20354;-48
2024/04/10 02:35:14;;;;;;;;;;;;;;;7.80;100.00;98502.09;5488258;26;19974;-48
2024/04/10 02:37:40;;;;;;;;;;;;;;;7.87;100.00;98496.63;5470873;26;20040;-49
2024/04/10 02:40:06;;;;;;;;;;;;;;;7.78;100.00;98502.19;5481407;26;19985;-49
2024/04/10 02:42:31;;;;;;;;;;;;;;;7.74;100.00;98500.59;5481262;26;19935;-48
2024/04/10 02:44:57;;;;;;;;;;;;;;;7.71;100.00;98505.91;5475730;26;19928;-49
2024/04/10 02:47:22;;;;;;;;;;;;;;;7.78;100.00;98512.53;5484673;26;19987;-49
2024/04/10 02:49:47;;;;;;;;;;;;;;;7.75;100.00;98507.44;5478193;26;20020;-49
2024/04/10 02:52:12;;;;;;;;;;;;;;;7.84;100.00;98507.13;5479101;26;20023;-49
2024/04/10 02:54:38;;;;;;;;;;;;;;;7.84;100.00;98507.13;5487151;26;19965;-49
2024/04/10 02:57:03;;;;;;;;;;;;;;;7.84;100.00;98509.72;5480197;26;19928;-48
2024/04/10 02:59:28;;;;;;;;;;;;;;;7.86;100.00;98515.69;5481089;26;20234;-48
2024/04/10 03:01:53;;;;;;;;;;;;;;;7.93;100.00;98517.16;5481334;26;20013;-50
2024/04/10 03:04:19;;;;;;;;;;;;;;;7.93;100.00;98519.72;5482446;26;19973;-48
2024/04/10 03:06:44;;;;;;;;;;;;;;;7.73;100.00;98513.59;5479651;26;19995;-48
2024/04/10 03:09:10;;;;;;;;;;;;;;;7.68;100.00;98526.72;5470782;26;20267;-48
2024/04/10 03:11:36;;;;;;;;;;;;;;;7.69;100.00;98523.22;5476721;26;20262;-49
2024/04/10 03:14:01;;;;;;;;;;;;;;;7.52;100.00;98519.56;5474005;26;19928;-48
2024/04/10 03:16:26;;;;;;;;;;;;;;;7.52;100.00;98525.59;5478212;26;20270;-49
2024/04/10 03:18:51;;;;;;;;;;;;;;;7.40;100.00;98530.34;5469710;26;20348;-50
2024/04/10 03:21:16;;;;;;;;;;;;;;;7.28;100.00;98536.78;5472854;26;20042;-49
2024/04/10 03:23:42;;;;;;;;;;;;;;;7.33;100.00;98534.03;5471228;26;20058;-49
2024/04/10 03:26:10;;;;;;;;;;;;;;;7.26;100.00;98529.97;5474142;26;19963;-48
2024/04/10 03:28:35;;;;;;;;;;;;;;;7.18;100.00;98534.56;5474989;26;19968;-48
2024/04/10 03:31:01;;;;;;;;;;;;;;;7.06;100.00;98535.00;5481500;26;20042;-48
2024/04/10 03:33:26;;;;;;;;;;;;;;;7.18;100.00;98538.03;5478874;26;19974;-49
2024/04/10 03:35:52;;;;;;;;;;;;;;;7.05;100.00;98541.91;5486834;26;19998;-48
2024/04/10 03:38:18;;;;;;;;;;;;;;;7.07;100.00;98537.53;5487350;26;19928;-48
2024/04/10 03:40:44;;;;;;;;;;;;;;;6.78;100.00;98549.75;5486871;26;20406;-49
2024/04/10 03:43:09;;;;;;;;;;;;;;;6.95;100.00;98561.22;5470852;26;19928;-50
2024/04/10 03:45:35;;;;;;;;;;;;;;;6.97;100.00;98561.19;5481387;26;19928;-49
2024/04/10 03:48:00;;;;;;;;;;;;;;;6.61;100.00;98564.94;5483388;26;19962;-48
2024/04/10 03:50:26;;;;;;;;;;;;;;;6.63;100.00;98566.59;5477971;26;20038;-49
2024/04/10 03:52:51;;;;;;;;;;;;;;;6.41;100.00;98569.88;5480256;26;20015;-50
2024/04/10 03:55:16;;;;;;;;;;;;;;;6.55;100.00;98568.56;5485353;26;19963;-51
2024/04/10 03:57:41;;;;;;;;;;;;;;;6.65;100.00;98580.31;5478576;26;19966;-49
2024/04/10 04:00:07;;;;;;;;;;;;;;;6.58;100.00;98578.84;5467937;26;20394;-48
2024/04/10 04:02:34;;;;;;;;;;;;;;;6.66;100.00;98584.59;5478139;26;19977;-48
2024/04/10 04:04:59;;;;;;;;;;;;;;;6.61;100.00;98591.66;5475929;26;20462;-48
2024/04/10 04:07:24;;;;;;;;;;;;;;;6.55;100.00;98591.84;5477303;26;19978;-49
2024/04/10 04:09:49;;;;;;;;;;;;;;;6.51;100.00;98602.31;5475010;26;20258;-50
2024/04/10 04:12:14;;;;;;;;;;;;;;;6.65;100.00;98603.59;5476717;26;19983;-50
2024/04/10 04:14:40;;;;;;;;;;;;;;;6.67;100.00;98608.69;5474609;26;19982;-49
2024/04/10 04:17:05;;;;;;;;;;;;;;;6.55;100.00;98609.94;5476350;26;19942;-49
2024/04/10 04:19:30;;;;;;;;;;;;;;;6.59;100.00;98611.53;5476875;26;20359;-48
2024/04/10 04:21:55;;;;;;;;;;;;;;;6.61;100.00;98620.09;5478200;26;20276;-49
2024/04/10 04:24:20;;;;;;;;;;;;;;;6.65;100.00;98616.53;5477551;26;20235;-50
2024/04/10 04:26:46;;;;;;;;;;;;;;;6.81;100.00;98620.31;5483388;26;20425;-49
2024/04/10 04:29:11;;;;;;;;;;;;;;;6.80;100.00;98623.81;5477384;26;20282;-50
2024/04/10 04:31:36;;;;;;;;;;;;;;;6.72;100.00;98628.38;5482259;26;20047;-49
2024/04/10 04:34:09;;;;;;;;;;;;;;;6.66;100.00;98631.16;5478564;26;19990;-49
2024/04/10 04:36:35;;;;;;;;;;;;;;;6.74;100.00;98631.75;5475558;26;20343;-49
2024/04/10 04:39:01;;;;;;;;;;;;;;;6.67;100.00;98631.97;5478707;26;20256;-48
2024/04/10 04:41:26;;;;;;;;;;;;;;;6.67;100.00;98629.41;5485403;26;20059;-48
2024/04/10 04:43:52;;;;;;;;;;;;;;;6.57;100.00;98623.66;5484559;26;20293;-48
2024/04/10 04:46:17;;;;;;;;;;;;;;;6.46;100.00;98627.47;5473046;26;20339;-49
2024/04/10 04:48:42;;;;;;;;;;;;;;;6.66;100.00;98627.69;5473802;26;19961;-49
2024/04/10 04:51:10;;;;;;;;;;;;;;;6.67;100.00;98640.59;5477985;26;20053;-48
2024/04/10 04:53:35;;;;;;;;;;;;;;;6.70;100.00;98637.91;5481495;26;19981;-48
2024/04/10 04:56:01;;;;;;;;;;;;;;;6.66;100.00;98638.91;5479104;26;19929;-49
2024/04/10 04:58:26;;;;;;;;;;;;;;;6.72;100.00;98648.22;5477770;26;20029;-49
2024/04/10 05:00:52;;;;;;;;;;;;;;;6.72;100.00;98651.66;5470384;26;20276;-49
2024/04/10 05:06:05;;;;;;;;;;;;;;;6.90;100.00;98658.81;5471568;26;19990;-49
2024/04/10 05:08:30;;;;;;;;;;;;;;;7.01;100.00;98661.94;5479271;26;20333;-49
2024/04/10 05:10:55;;;;;;;;;;;;;;;7.08;100.00;98663.44;5473862;26;19928;-49
2024/04/10 05:13:21;;;;;;;;;;;;;;;7.10;100.00;98665.97;5475200;26;19980;-48
2024/04/10 05:15:46;;;;;;;;;;;;;;;7.10;100.00;98660.81;5471003;26;20457;-50
2024/04/10 05:18:11;;;;;;;;;;;;;;;7.32;100.00;98660.06;5473328;26;20039;-49
2024/04/10 05:20:36;;;;;;;;;;;;;;;7.26;100.00;98664.56;5466422;26;19967;-49
2024/04/10 05:23:02;;;;;;;;;;;;;;;7.59;100.00;98666.91;5472634;26;19988;-47
2024/04/10 05:25:28;;;;;;;;;;;;;;;7.68;100.00;98666.59;5467297;26;19961;-47
2024/04/10 05:27:55;;;;;;;;;;;;;;;7.78;100.00;98667.97;5486303;26;19986;-49
2024/04/10 05:30:20;;;;;;;;;;;;;;;7.84;100.00;98670.38;5479104;26;19974;-47
2024/04/10 05:32:46;;;;;;;;;;;;;;;8.06;100.00;98668.69;5476982;26;19932;-49
2024/04/10 05:35:12;;;;;;;;;;;;;;;8.14;100.00;98687.41;5471273;26;19976;-48
2024/04/10 05:37:38;;;;;;;;;;;;;;;8.20;100.00;98676.84;5468700;26;19991;-49
2024/04/10 05:40:08;;;;;;;;;;;;;;;8.72;100.00;98689.59;5467429;26;19964;-47
2024/04/10 05:42:34;;;;;;;;;;;;;;;8.97;100.00;98698.16;5470295;26;19935;-47
2024/04/10 05:45:00;;;;;;;;;;;;;;;8.67;100.00;98709.69;5476395;26;20437;-47
2024/04/10 05:47:25;;;;;;;;;;;;;;;8.56;100.00;98711.00;5478400;26;19981;-47
2024/04/10 05:49:50;;;;;;;;;;;;;;;8.66;100.00;98717.50;5476502;26;20395;-49
2024/04/10 05:52:15;;;;;;;;;;;;;;;8.63;100.00;98718.47;5471391;26;20291;-48
2024/04/10 05:54:41;;;;;;;;;;;;;;;8.72;100.00;98712.97;5474847;26;19976;-47
2024/04/10 05:57:07;;;;;;;;;;;;;;;8.87;100.00;98722.75;5476891;26;19936;-48
2024/04/10 05:59:32;;;;;;;;;;;;;;;8.71;100.00;98721.66;5478822;26;20655;-48
2024/04/10 06:01:57;;;;;;;;;;;;;;;8.80;100.00;98730.81;5465481;26;19928;-48
2024/04/10 06:04:23;;;;;;;;;;;;;;;8.90;100.00;98733.00;5475924;26;19952;-51
2024/04/10 06:06:48;;;;;;;;;;;;;;;8.96;100.00;98737.97;5481505;26;19958;-49
2024/04/10 06:09:13;;;;;;;;;;;;;;;9.03;100.00;98738.59;5467183;26;20324;-49
2024/04/10 06:11:38;;;;;;;;;;;;;;;9.10;100.00;98740.91;5472704;26;20295;-49
2024/04/10 06:14:03;;;;;;;;;;;;;;;9.08;100.00;98747.06;5474463;26;20362;-49
2024/04/10 06:16:29;;;;;;;;;;;;;;;9.16;100.00;98745.84;5471531;26;20381;-50
2024/04/10 06:18:54;;;;;;;;;;;;;;;9.31;100.00;98747.00;5468056;26;20050;-49
2024/04/10 06:21:19;;;;;;;;;;;;;;;9.25;99.18;98750.69;5473597;26;19968;-49
2024/04/10 06:23:45;;;;;;;;;;;;;;;9.35;99.67;98757.22;5471842;26;20044;-48
2024/04/10 06:26:10;;;;;;;;;;;;;;;9.40;98.70;98763.06;5467520;26;19965;-48
2024/04/10 06:28:36;;;;;;;;;;;;;;;9.51;98.25;98762.66;5475566;26;20020;-49
2024/04/10 06:31:02;;;;;;;;;;;;;;;9.60;96.86;98762.28;5473878;26;19962;-49
2024/04/10 06:33:27;;;;;;;;;;;;;;;9.60;96.99;98755.34;5482422;26;19935;-51
2024/04/10 06:35:53;;;;;;;;;;;;;;;9.66;96.66;98757.69;5472940;26;19964;-49
2024/04/10 06:38:18;;;;;;;;;;;;;;;9.69;95.69;98772.31;5473823;26;20401;-49
2024/04/10 06:40:51;;;;;;;;;;;;;;;9.95;95.42;98770.31;5475204;26;20269;-49
2024/04/10 06:43:17;;;;;;;;;;;;;;;10.15;94.80;98767.78;5472437;26;20328;-48
2024/04/10 06:45:42;;;;;;;;;;;;;;;10.36;93.01;98772.06;5475799;26;19983;-49
2024/04/10 06:48:07;;;;;;;;;;;;;;;10.23;92.88;98781.31;5479644;26;19962;-49
2024/04/10 06:50:34;;;;;;;;;;;;;;;10.27;90.46;98785.47;5476415;26;19928;-48
2024/04/10 06:53:00;;;;;;;;;;;;;;;10.21;89.65;98783.13;5473628;26;19928;-49
2024/04/10 06:55:25;;;;;;;;;;;;;;;10.25;88.97;98789.91;5476447;26;19942;-50
2024/04/10 06:57:51;;;;;;;;;;;;;;;10.32;88.30;98791.34;5473901;26;19928;-49
2024/04/10 07:00:16;;;;;;;;;;;;;;;10.43;86.58;98785.66;5473360;26;19967;-49
2024/04/10 07:02:42;;;;;;;;;;;;;;;10.57;86.82;98793.72;5475487;26;20392;-49
2024/04/10 07:05:07;;;;;;;;;;;;;;;10.67;85.78;98793.25;5469036;26;19978;-49
2024/04/10 07:07:33;;;;;;;;;;;;;;;10.77;84.90;98793.69;5476786;26;19965;-49
2024/04/10 07:09:59;;;;;;;;;;;;;;;10.83;84.60;98797.72;5477285;26;20340;-49
2024/04/10 07:12:25;;;;;;;;;;;;;;;10.92;83.01;98793.84;5485333;26;20584;-49
2024/04/10 07:14:50;;;;;;;;;;;;;;;11.03;81.88;98794.22;5479923;26;19958;-49
2024/04/10 07:17:16;;;;;;;;;;;;;;;11.10;81.21;98808.66;5473003;26;19929;-49
2024/04/10 07:19:41;;;;;;;;;;;;;;;11.35;78.84;98806.59;5472132;26;20452;-48
2024/04/10 07:22:07;;;;;;;;;;;;;;;11.24;78.04;98803.66;5471675;26;19963;-48
2024/04/10 07:26:30;;;;;;;;;;;;;;;11.43;77.45;98814.94;5462114;25;20448;-50
2024/04/10 07:28:55;;;;;;;;;;;;;;;11.33;77.68;98811.06;5457613;26;19928;-48
2024/04/10 07:31:21;;;;;;;;;;;;;;;11.54;76.62;98820.47;5455033;26;19929;-48
2024/04/10 07:33:51;;;;;;;;;;;;;;;11.40;76.19;98822.88;5461914;26;19970;-49
2024/04/10 07:36:18;;;;;;;;;;;;;;;11.34;76.20;98824.03;5455727;26;19937;-49
2024/04/10 07:38:43;;;;;;;;;;;;;;;11.54;76.25;98820.47;5457707;26;19928;-48
2024/04/10 07:41:09;;;;;;;;;;;;;;;11.67;75.50;98826.84;5457018;26;20200;-49
2024/04/10 07:43:35;;;;;;;;;;;;;;;11.76;76.18;98839.47;5458900;26;19993;-48
2024/04/10 07:46:07;;;;;;;;;;;;;;;11.88;74.36;98838.84;5457127;26;19929;-50
2024/04/10 07:48:33;;;;;;;;;;;;;;;11.92;73.98;98838.63;5453284;26;19984;-48
2024/04/10 07:51:00;;;;;;;;;;;;;;;12.03;72.97;98845.97;5450507;26;19935;-48
2024/04/10 07:53:25;;;;;;;;;;;;;;;12.35;72.01;98847.81;5453297;26;20028;-49
2024/04/10 07:55:51;;;;;;;;;;;;;;;12.30;71.69;98840.22;5462910;26;20204;-48
2024/04/10 07:58:16;;;;;;;;;;;;;;;12.62;70.42;98842.06;5455757;26;20358;-50
2024/04/10 08:00:41;;;;;;;;;;;;;;;12.78;69.58;98852.56;5453534;26;20323;-49
2024/04/10 08:03:08;;;;;;;;;;;;;;;12.93;68.81;98859.59;5458836;26;19978;-48
2024/04/10 08:05:33;;;;;;;;;;;;;;;13.12;68.02;98863.00;5459247;26;19935;-48
2024/04/10 08:08:00;;;;;;;;;;;;;;;13.49;66.59;98852.28;5458265;26;20274;-49
2024/04/10 08:10:25;;;;;;;;;;;;;;;13.82;64.94;98866.09;5457910;26;19974;-49
2024/04/10 08:12:54;;;;;;;;;;;;;;;14.28;62.95;98865.22;5461417;26;19994;-48
2024/04/10 08:15:21;;;;;;;;;;;;;;;14.85;61.09;98867.09;5451086;26;19929;-48
2024/04/10 08:17:46;;;;;;;;;;;;;;;15.54;59.97;98865.44;5454910;26;20357;-50
2024/04/10 08:20:11;;;;;;;;;;;;;;;15.93;57.99;98871.66;5459507;26;19985;-49
2024/04/10 08:22:37;;;;;;;;;;;;;;;16.88;55.68;98879.34;5459191;26;20386;-50
2024/04/10 08:25:03;;;;;;;;;;;;;;;17.49;55.03;98877.69;5455249;26;19970;-50
2024/04/10 08:27:28;;;;;;;;;;;;;;;17.43;52.89;98880.75;5458952;26;19974;-49
2024/04/10 08:29:53;;;;;;;;;;;;;;;17.37;53.55;98881.19;5455164;26;19966;-49
2024/04/10 08:32:19;;;;;;;;;;;;;;;17.53;53.46;98879.13;5456349;26;19999;-50
2024/04/10 08:34:44;;;;;;;;;;;;;;;17.98;52.23;98885.59;5458346;26;20402;-50
2024/04/10 08:37:09;;;;;;;;;;;;;;;17.37;51.90;98883.81;5439668;26;20327;-50
2024/04/10 08:39:34;;;;;;;;;;;;;;;17.87;51.67;98889.00;5443848;26;20277;-49
2024/04/10 08:41:59;;;;;;;;;;;;;;;16.06;54.23;98885.69;5437931;26;19929;-49
2024/04/10 08:44:25;;;;;;;;;;;;;;;15.31;56.85;98897.47;5440451;26;20370;-49
2024/04/10 08:46:52;;;;;;;;;;;;;;;15.72;55.06;98893.16;5435458;26;20032;-49
2024/04/10 08:49:18;;;;;;;;;;;;;;;17.09;54.04;98902.41;5435888;26;19985;-50
2024/04/10 08:51:44;;;;;;;;;;;;;;;16.40;52.93;98892.25;5452935;26;19963;-49
2024/04/10 08:54:11;;;;;;;;;;;;;;;14.69;56.38;98903.00;5444207;26;19986;-49
2024/04/10 08:56:36;;;;;;;;;;;;;;;17.37;54.53;98909.25;5437349;26;19968;-49
2024/04/10 08:59:02;;;;;;;;;;;;;;;16.92;51.51;98908.91;5442105;26;20023;-50
2024/04/10 09:01:33;;;;;;;;;;;;;;;17.49;52.25;98911.91;5437235;26;20047;-50
2024/04/10 09:04:08;;;;;;;;;;;;;;;17.84;50.59;98910.28;5432817;26;20377;-49
2024/04/10 09:06:34;;;;;;;;;;;;;;;17.97;50.24;98913.72;5438986;26;20038;-51
2024/04/10 09:09:00;;;;;;;;;;;;;;;18.08;50.54;98908.53;5438478;26;19975;-49
2024/04/10 09:11:26;;;;;;;;;;;;;;;18.44;50.47;98921.69;5437037;26;19936;-48
2024/04/10 09:14:10;;;;;;;;;;;;;;;17.94;50.90;98919.22;5440484;26;19967;-50
2024/04/10 09:16:37;;;;;;;;;;;;;;;19.28;48.20;98920.59;5435911;26;19929;-51
2024/04/10 09:19:11;;;;;;;;;;;;;;;20.84;46.87;98929.06;5445057;26;19959;-47
2024/04/10 09:21:37;;;;;;;;;;;;;;;19.55;45.75;98929.03;5437320;26;19962;-49
2024/04/10 09:24:03;;;;;;;;;;;;;;;16.69;50.15;98936.72;5436847;26;20024;-47
2024/04/10 09:26:29;;;;;;;;;;;;;;;16.19;52.33;98925.16;5445399;26;19989;-47
2024/04/10 09:29:18;;;;;;;;;;;;;;;16.43;53.75;98936.75;5443259;26;19928;-49
2024/04/10 09:31:44;;;;;;;;;;;;;;;20.53;47.63;98934.34;5430598;26;19967;-50
2024/04/10 09:34:10;;;;;;;;;;;;;;;20.99;45.29;98935.75;5452458;26;19935;-48
2024/04/10 09:36:37;;;;;;;;;;;;;;;21.75;44.51;98927.47;5446204;26;19929;-47
2024/04/10 09:39:05;;;;;;;;;;;;;;;19.37;45.36;98935.72;5427870;26;19995;-47
2024/04/10 09:41:33;;;;;;;;;;;;;;;19.47;45.50;98931.44;5443233;26;19971;-47
2024/04/10 09:43:59;;;;;;;;;;;;;;;16.65;49.18;98934.41;5431560;26;19929;-47
2024/04/10 09:46:33;;;;;;;;;;;;;;;19.52;48.43;98944.28;5443668;26;19999;-47
2024/04/10 09:49:04;;;;;;;;;;;;;;;20.45;44.28;98945.53;5438591;26;20042;-48
2024/04/10 09:51:30;;;;;;;;;;;;;;;21.80;42.78;98952.63;5443869;26;20212;-47
2024/04/10 09:53:57;;;;;;;;;;;;;;;21.78;41.92;98951.91;5445965;26;20255;-48
2024/04/10 09:56:23;;;;;;;;;;;;;;;21.73;42.04;98951.47;5439104;26;19969;-47
2024/04/10 09:58:49;;;;;;;;;;;;;;;21.55;41.10;98958.31;5440234;26;19983;-47
2024/04/10 10:01:22;;;;;;;;;;;;;;;20.23;42.15;98953.53;5438126;26;20455;-48
2024/04/10 10:03:54;;;;;;;;;;;;;;;22.16;40.60;98962.66;5440530;26;20012;-47
2024/04/10 10:06:25;;;;;;;;;;;;;;;22.13;41.68;98962.09;5446039;26;19960;-47
2024/04/10 10:08:51;;;;;;;;;;;;;;;21.23;42.98;98956.72;5439104;26;19940;-48
2024/04/10 10:11:27;;;;;;;;;;;;;;;20.30;44.39;98945.97;5435747;26;19995;-48
2024/04/10 10:13:56;;;;;;;;;;;;;;;19.61;44.84;98949.69;5440504;26;20332;-48
2024/04/10 10:16:25;;;;;;;;;;;;;;;18.06;46.48;98951.75;5447212;26;19939;-48
2024/04/10 10:19:00;;;;;;;;;;;;;;;17.78;47.33;98952.84;5442052;26;20253;-48
2024/04/10 10:21:27;;;;;;;;;;;;;;;17.62;47.75;98949.59;5441517;26;20007;-48
2024/04/10 10:23:56;;;;;;;;;;;;;;;17.58;48.14;98956.03;5441489;26;19997;-48
2024/04/10 10:26:21;;;;;;;;;;;;;;;17.34;47.61;98957.69;5440560;26;20251;-47
2024/04/10 10:28:47;;;;;;;;;;;;;;;17.44;48.25;98958.75;5434071;26;19935;-48
2024/04/10 10:31:15;;;;;;;;;;;;;;;18.90;44.44;98956.91;5438697;26;19966;-48
2024/04/10 10:33:42;;;;;;;;;;;;;;;20.49;42.72;98956.72;5436315;26;20287;-48
2024/04/10 10:36:07;;;;;;;;;;;;;;;20.66;41.53;98957.06;5439843;26;20333;-47
2024/04/10 10:38:33;;;;;;;;;;;;;;;19.53;41.59;98952.09;5440882;26;19958;-48
2024/04/10 10:41:04;;;;;;;;;;;;;;;20.16;41.90;98947.06;5435361;26;19929;-48
2024/04/10 10:43:30;;;;;;;;;;;;;;;19.09;43.01;98946.66;5442370;26;20031;-48
2024/04/10 10:45:55;;;;;;;;;;;;;;;22.92;39.97;98944.22;5444085;26;20699;-48
2024/04/10 10:48:21;;;;;;;;;;;;;;;23.29;38.45;98937.25;5446247;26;20436;-48
2024/04/10 10:50:53;;;;;;;;;;;;;;;20.79;41.18;98923.28;5441602;26;19928;-48
2024/04/10 10:53:19;;;;;;;;;;;;;;;18.96;44.47;98926.59;5439515;26;20383;-49
2024/04/10 10:55:54;;;;;;;;;;;;;;;18.48;44.87;98933.72;5442407;26;19936;-48
2024/04/10 10:58:21;;;;;;;;;;;;;;;18.90;45.07;98929.69;5443338;26;19933;-47
2024/04/10 11:00:46;;;;;;;;;;;;;;;18.56;44.77;98934.00;5435642;26;19960;-48
2024/04/10 11:03:11;;;;;;;;;;;;;;;18.82;44.77;98925.00;5444892;26;19937;-47
2024/04/10 11:05:37;;;;;;;;;;;;;;;18.41;45.54;98927.22;5436062;26;19966;-48
2024/04/10 11:08:03;;;;;;;;;;;;;;;19.38;44.18;98932.13;5436011;26;20402;-49
2024/04/10 11:10:29;;;;;;;;;;;;;;;20.65;42.45;98913.00;5444865;26;19931;-49
2024/04/10 11:12:58;;;;;;;;;;;;;;;22.06;39.53;98916.72;5438686;26;19928;-49
2024/04/10 11:15:23;;;;;;;;;;;;;;;22.38;38.92;98922.66;5445035;26;19963;-48
2024/04/10 11:17:48;;;;;;;;;;;;;;;22.23;37.60;98924.00;5442486;26;19939;-48
2024/04/10 11:20:15;;;;;;;;;;;;;;;22.49;38.49;98924.38;5442659;26;19929;-48
2024/04/10 11:22:40;;;;;;;;;;;;;;;24.01;37.10;98914.41;5432753;26;19960;-48
2024/04/10 11:25:07;;;;;;;;;;;;;;;23.92;35.58;98914.44;5442470;26;20055;-49
2024/04/10 11:27:33;;;;;;;;;;;;;;;23.11;37.42;98917.66;5437459;26;19960;-49
2024/04/10 11:29:58;;;;;;;;;;;;;;;22.74;38.35;98919.38;5438971;26;19928;-48
2024/04/10 11:32:23;;;;;;;;;;;;;;;21.03;40.53;98921.31;5439741;26;20007;-48
2024/04/10 11:34:49;;;;;;;;;;;;;;;19.94;43.06;98917.13;5434465;26;19991;-49
2024/04/10 11:37:14;;;;;;;;;;;;;;;18.87;43.96;98922.88;5441192;26;19959;-49
2024/04/10 11:39:39;;;;;;;;;;;;;;;18.13;43.84;98921.38;5436962;26;19966;-48
2024/04/10 11:42:05;;;;;;;;;;;;;;;17.89;44.62;98920.47;5432510;26;20018;-48
2024/04/10 11:44:31;;;;;;;;;;;;;;;18.00;45.15;98921.44;5440938;26;20255;-49
2024/04/10 11:46:56;;;;;;;;;;;;;;;17.55;45.78;98911.50;5444310;26;19944;-49
2024/04/10 11:49:21;;;;;;;;;;;;;;;17.46;46.02;98911.28;5434287;26;19945;-51
2024/04/10 11:51:47;;;;;;;;;;;;;;;17.90;45.77;98912.47;5442545;26;19936;-48
2024/04/10 11:54:13;;;;;;;;;;;;;;;21.09;41.42;98917.28;5437368;26;19960;-50
2024/04/10 11:56:38;;;;;;;;;;;;;;;23.18;38.67;98924.13;5429033;26;20044;-49
2024/04/10 11:59:04;;;;;;;;;;;;;;;22.74;36.64;98919.38;5434231;26;19966;-49
2024/04/10 12:01:29;;;;;;;;;;;;;;;22.35;36.05;98912.31;5438560;26;19937;-49
2024/04/10 12:03:55;;;;;;;;;;;;;;;22.54;36.76;98923.00;5430189;26;19940;-49
2024/04/10 12:06:21;;;;;;;;;;;;;;;21.50;36.45;98918.13;5435138;26;20052;-49
2024/04/10 12:08:46;;;;;;;;;;;;;;;22.45;38.50;98923.81;5438981;26;20298;-48
2024/04/10 12:11:11;;;;;;;;;;;;;;;22.47;36.87;98923.69;5437542;26;19990;-50
2024/04/10 12:13:42;;;;;;;;;;;;;;;20.62;38.22;98909.78;5437391;26;20229;-49
2024/04/10 12:16:08;;;;;;;;;;;;;;;19.55;39.72;98912.34;5440924;26;19992;-50
2024/04/10 12:18:33;;;;;;;;;;;;;;;17.44;44.16;98913.19;5427236;26;19960;-48
2024/04/10 12:20:59;;;;;;;;;;;;;;;18.35;44.33;98922.38;5438663;26;20579;-48
2024/04/10 12:23:26;;;;;;;;;;;;;;;18.61;43.50;98923.97;5436420;26;19964;-48
2024/04/10 12:25:51;;;;;;;;;;;;;;;20.04;41.45;98916.28;5443554;26;19985;-50
2024/04/10 12:28:17;;;;;;;;;;;;;;;21.68;37.26;98921.03;5427823;26;19964;-48
2024/04/10 12:30:42;;;;;;;;;;;;;;;22.26;36.47;98922.91;5441142;26;19929;-48
2024/04/10 12:33:07;;;;;;;;;;;;;;;20.01;40.21;98926.25;5433988;26;19988;-47
2024/04/10 12:38:17;;;;;;;;;;;;;;;20.99;38.82;98911.91;5447361;26;20055;-49
2024/04/10 12:40:42;;;;;;;;;;;;;;;21.04;39.04;98909.75;5447824;26;19932;-48
2024/04/10 12:43:09;;;;;;;;;;;;;;;21.50;38.64;98907.50;5445198;26;19935;-47
2024/04/10 12:45:34;;;;;;;;;;;;;;;22.81;37.51;98909.88;5445755;26;19929;-48
2024/04/10 12:48:00;;;;;;;;;;;;;;;22.65;36.93;98917.53;5443857;26;19996;-48
2024/04/10 12:50:26;;;;;;;;;;;;;;;21.62;37.83;98911.75;5439651;26;20306;-49